createdAt,value
2018-01-28T00:02:24.488Z,34.40
2018-01-28T00:04:50.666Z,27.73
2018-01-28T00:07:17.623Z,28.10
2018-01-28T00:09:43.838Z,24.40
2018-01-28T00:12:10.745Z,26.67
2018-01-28T00:14:36.924Z,23.77
2018-01-28T00:17:03.094Z,30.10
2018-01-28T00:19:29.311Z,22.17
2018-01-28T00:21:55.482Z,30.47
2018-01-28T00:24:22.440Z,23.13
2018-01-28T00:26:52.339Z,25.67
2018-01-28T00:29:19.340Z,25.33
2018-01-28T00:31:45.676Z,28.13
2018-01-28T00:34:11.860Z,19.77
2018-01-28T00:36:38.051Z,23.17
2018-01-28T00:39:05.094Z,24.53
2018-01-28T00:41:32.077Z,23.13
2018-01-28T00:43:58.299Z,21.03
2018-01-28T00:46:24.520Z,21.67
2018-01-28T00:48:50.751Z,20.07
2018-01-28T00:51:16.964Z,21.43
2018-01-28T00:53:43.854Z,24.70
2018-01-28T00:56:10.091Z,21.00
2018-01-28T00:58:36.337Z,17.90
2018-01-28T01:01:02.561Z,20.03
2018-01-28T01:03:28.803Z,17.33
2018-01-28T01:05:54.985Z,14.57
2018-01-28T01:08:21.242Z,21.30
2018-01-28T01:10:47.436Z,19.70
2018-01-28T01:13:13.696Z,23.47
2018-01-28T01:15:39.897Z,20.50
2018-01-28T01:18:06.106Z,17.80
2018-01-28T01:20:32.291Z,18.30
2018-01-28T01:22:58.496Z,17.23
2018-01-28T01:25:25.449Z,19.77
2018-01-28T01:27:51.643Z,20.80
2018-01-28T01:30:17.836Z,17.07
2018-01-28T01:32:44.848Z,18.73
2018-01-28T01:35:11.048Z,18.17
2018-01-28T01:37:37.266Z,17.33
2018-01-28T01:40:03.499Z,18.67
2018-01-28T01:42:29.667Z,16.73
2018-01-28T01:44:56.627Z,18.00
2018-01-28T01:47:22.832Z,22.23
2018-01-28T01:49:49.112Z,20.47
2018-01-28T01:52:15.300Z,17.17
2018-01-28T01:54:41.489Z,19.07
2018-01-28T01:57:07.669Z,15.83
2018-01-28T01:59:33.845Z,18.07
2018-01-28T02:02:00.078Z,18.70
2018-01-28T02:04:26.319Z,15.23
2018-01-28T02:06:52.517Z,15.93
2018-01-28T02:09:18.694Z,13.70
2018-01-28T02:11:45.638Z,15.73
2018-01-28T02:14:11.804Z,14.83
2018-01-28T02:16:38.006Z,17.40
2018-01-28T02:19:04.187Z,15.23
2018-01-28T02:21:30.412Z,15.93
2018-01-28T02:23:56.611Z,14.20
2018-01-28T02:26:23.585Z,16.60
2018-01-28T02:28:49.763Z,16.17
2018-01-28T02:31:15.961Z,18.00
2018-01-28T02:33:42.883Z,19.73
2018-01-28T02:36:09.085Z,15.67
2018-01-28T02:38:35.576Z,16.73
2018-01-28T02:41:02.586Z,14.17
2018-01-28T02:43:28.778Z,16.53
2018-01-28T02:45:55.003Z,18.47
2018-01-28T02:48:21.175Z,12.60
2018-01-28T02:50:47.450Z,18.83
2018-01-28T02:53:13.654Z,12.10
2018-01-28T02:55:40.545Z,14.93
2018-01-28T02:58:06.789Z,16.17
2018-01-28T03:00:33.025Z,16.53
2018-01-28T03:02:59.179Z,13.77
2018-01-28T03:05:26.062Z,17.40
2018-01-28T03:07:52.290Z,13.27
2018-01-28T03:10:18.458Z,15.43
2018-01-28T03:12:44.612Z,11.73
2018-01-28T03:15:10.836Z,16.73
2018-01-28T03:17:37.059Z,11.93
2018-01-28T03:20:03.291Z,14.07
2018-01-28T03:22:29.443Z,12.10
2018-01-28T03:24:55.665Z,9.33
2018-01-28T03:27:21.884Z,13.57
2018-01-28T03:29:48.091Z,11.53
2018-01-28T03:32:14.314Z,11.17
2018-01-28T03:34:41.256Z,13.00
2018-01-28T03:37:07.492Z,12.40
2018-01-28T03:39:33.740Z,13.60
2018-01-28T03:41:59.936Z,11.30
2018-01-28T03:44:26.869Z,13.37
2018-01-28T03:46:53.070Z,16.00
2018-01-28T03:49:19.231Z,12.80
2018-01-28T03:51:45.480Z,19.37
2018-01-28T03:54:11.667Z,22.33
2018-01-28T03:56:37.899Z,19.17
2018-01-28T03:59:04.041Z,15.27
2018-01-28T04:01:30.984Z,17.47
2018-01-28T04:03:57.894Z,21.90
2018-01-28T04:06:24.079Z,20.93
2018-01-28T04:08:50.255Z,17.20
2018-01-28T04:11:16.452Z,24.43
2018-01-28T04:13:42.917Z,23.27
2018-01-28T04:16:09.086Z,17.70
2018-01-28T04:18:35.329Z,25.53
2018-01-28T04:21:01.516Z,17.67
2018-01-28T04:23:28.444Z,18.17
2018-01-28T04:25:54.604Z,20.27
2018-01-28T04:28:20.787Z,20.27
2018-01-28T04:30:47.157Z,21.70
2018-01-28T04:33:13.380Z,19.80
2018-01-28T04:35:40.289Z,21.63
2018-01-28T04:38:06.481Z,28.33
2018-01-28T04:40:32.743Z,21.47
2018-01-28T04:42:58.955Z,24.60
2018-01-28T04:45:25.191Z,21.30
2018-01-28T04:47:51.462Z,20.53
2018-01-28T04:50:17.674Z,20.47
2018-01-28T04:52:44.579Z,16.33
2018-01-28T04:55:10.776Z,20.87
2018-01-28T04:57:36.935Z,22.63
2018-01-28T05:00:03.150Z,20.27
2018-01-28T05:02:30.147Z,28.23
2018-01-28T05:04:57.682Z,21.13
2018-01-28T05:07:24.644Z,20.13
2018-01-28T05:09:51.583Z,19.60
2018-01-28T05:12:18.569Z,20.60
2018-01-28T05:14:44.736Z,21.90
2018-01-28T05:17:10.977Z,22.07
2018-01-28T05:19:37.901Z,24.77
2018-01-28T05:22:04.146Z,20.63
2018-01-28T05:24:31.088Z,20.63
2018-01-28T05:26:57.340Z,17.60
2018-01-28T05:29:24.249Z,20.17
2018-01-28T05:31:50.488Z,21.60
2018-01-28T05:34:16.699Z,21.73
2018-01-28T05:36:42.886Z,23.90
2018-01-28T05:39:09.054Z,18.53
2018-01-28T05:41:35.274Z,29.50
2018-01-28T05:44:01.454Z,22.13
2018-01-28T05:46:27.637Z,20.07
2018-01-28T05:48:53.859Z,22.57
2018-01-28T05:51:20.077Z,24.30
2018-01-28T05:53:46.260Z,17.97
2018-01-28T05:56:12.454Z,19.37
2018-01-28T05:58:38.629Z,22.13
2018-01-28T06:01:05.602Z,20.40
2018-01-28T06:03:31.843Z,23.03
2018-01-28T06:05:58.042Z,16.40
2018-01-28T06:08:24.207Z,19.27
2018-01-28T06:10:50.384Z,25.43
2018-01-28T06:13:16.537Z,22.70
2018-01-28T06:15:42.763Z,20.23
2018-01-28T06:18:08.945Z,21.23
2018-01-28T06:20:35.158Z,23.60
2018-01-28T06:23:01.390Z,19.87
2018-01-28T06:25:27.639Z,22.97
2018-01-28T06:27:53.811Z,25.80
2018-01-28T06:30:20.016Z,30.07
2018-01-28T06:32:46.226Z,21.60
2018-01-28T06:35:12.460Z,23.07
2018-01-28T06:37:38.783Z,18.83
2018-01-28T06:40:04.999Z,19.17
2018-01-28T06:42:31.180Z,20.33
2018-01-28T06:44:57.390Z,14.60
2018-01-28T06:47:23.587Z,18.47
2018-01-28T06:49:49.760Z,16.63
2018-01-28T06:52:16.038Z,12.10
2018-01-28T06:54:42.977Z,13.73
2018-01-28T06:57:09.192Z,15.87
2018-01-28T06:59:35.433Z,21.70
2018-01-28T07:02:01.724Z,11.23
2018-01-28T07:04:28.645Z,11.73
2018-01-28T07:06:54.880Z,7.77
2018-01-28T07:09:21.047Z,9.60
2018-01-28T07:11:47.250Z,6.70
2018-01-28T07:14:14.192Z,6.87
2018-01-28T07:16:41.106Z,6.80
2018-01-28T07:19:07.331Z,4.67
2018-01-28T07:21:33.575Z,9.00
2018-01-28T07:24:00.528Z,5.20
2018-01-28T07:26:27.427Z,5.07
2018-01-28T07:28:53.606Z,5.73
2018-01-28T07:31:19.821Z,4.60
2018-01-28T07:33:46.019Z,6.27
2018-01-28T07:36:12.259Z,8.73
2018-01-28T07:38:38.555Z,9.10
2018-01-28T07:41:04.831Z,6.03
2018-01-28T07:43:30.994Z,6.30
2018-01-28T07:45:57.288Z,6.37
2018-01-28T07:48:23.465Z,6.73
2018-01-28T07:50:49.727Z,7.07
2018-01-28T07:53:15.920Z,9.47
2018-01-28T07:55:43.065Z,6.40
2018-01-28T07:58:09.258Z,7.83
2018-01-28T08:00:36.167Z,11.43
2018-01-28T08:03:02.414Z,11.37
2018-01-28T08:05:28.631Z,7.80
2018-01-28T08:07:54.956Z,7.00
2018-01-28T08:13:43.238Z,7.90
2018-01-28T08:16:09.453Z,8.80
2018-01-28T08:18:36.448Z,7.63
2018-01-28T08:21:02.670Z,7.27
2018-01-28T08:23:28.879Z,9.23
2018-01-28T08:25:55.152Z,9.80
2018-01-28T08:31:26.282Z,13.60
2018-01-28T08:33:52.507Z,13.90
2018-01-28T08:36:18.844Z,8.77
2018-01-28T08:38:45.054Z,8.90
2018-01-28T08:41:12.005Z,8.00
2018-01-28T08:43:38.205Z,12.20
2018-01-28T08:46:12.273Z,11.73
2018-01-28T08:48:38.518Z,12.80
2018-01-28T08:51:04.703Z,12.50
2018-01-28T08:53:30.943Z,13.20
2018-01-28T08:55:57.127Z,14.20
2018-01-28T08:58:24.078Z,13.00
2018-01-28T09:00:50.264Z,17.13
2018-01-28T09:03:16.989Z,10.83
2018-01-28T09:05:43.195Z,12.40
2018-01-28T09:08:09.563Z,14.67
2018-01-28T09:10:36.493Z,16.97
2018-01-28T09:13:02.691Z,16.60
2018-01-28T09:15:28.923Z,13.50
2018-01-28T09:17:55.107Z,16.70
2018-01-28T09:20:22.205Z,14.37
2018-01-28T09:22:48.397Z,14.80
2018-01-28T09:25:15.357Z,17.73
2018-01-28T09:27:41.592Z,15.93
2018-01-28T09:30:07.835Z,16.23
2018-01-28T09:32:34.097Z,15.90
2018-01-28T09:35:00.381Z,20.90
2018-01-28T09:37:26.565Z,13.67
2018-01-28T09:39:53.532Z,14.13
2018-01-28T09:42:20.465Z,16.00
2018-01-28T09:44:47.454Z,14.50
2018-01-28T09:47:13.636Z,19.83
2018-01-28T09:49:40.608Z,14.43
2018-01-28T09:52:06.881Z,15.70
2018-01-28T09:54:33.139Z,19.20
2018-01-28T09:57:00.077Z,21.13
2018-01-28T09:59:27.012Z,17.80
2018-01-28T10:01:53.220Z,28.83
2018-01-28T10:04:19.551Z,19.60
2018-01-28T10:06:45.863Z,15.83
2018-01-28T10:09:12.070Z,15.27
2018-01-28T10:11:38.296Z,15.27
2018-01-28T10:14:04.540Z,17.50
2018-01-28T10:16:30.780Z,17.70
2018-01-28T10:18:56.997Z,21.17
2018-01-28T10:21:24.271Z,22.07
2018-01-28T10:23:51.235Z,17.27
2018-01-28T10:26:18.996Z,14.97
2018-01-28T10:28:45.358Z,21.53
2018-01-28T10:31:11.564Z,21.37
2018-01-28T10:33:38.049Z,18.23
2018-01-28T10:36:04.327Z,22.00
2018-01-28T10:38:30.544Z,19.00
2018-01-28T10:40:57.483Z,16.00
2018-01-28T10:43:23.726Z,15.60
2018-01-28T10:45:50.751Z,17.23
2018-01-28T10:48:17.804Z,14.73
2018-01-28T10:50:44.044Z,20.33
2018-01-28T10:53:11.023Z,17.87
2018-01-28T10:55:37.654Z,16.20
2018-01-28T10:58:04.005Z,16.20
2018-01-28T11:00:30.231Z,16.43
2018-01-28T11:02:56.696Z,19.47
2018-01-28T11:05:24.257Z,26.20
2018-01-28T11:07:50.439Z,20.70
2018-01-28T11:10:16.643Z,24.83
2018-01-28T11:12:43.625Z,18.60
2018-01-28T11:15:09.835Z,20.10
2018-01-28T11:17:36.039Z,18.00
2018-01-28T11:20:04.287Z,15.57
2018-01-28T11:22:31.338Z,16.30
2018-01-28T11:25:14.943Z,25.73
2018-01-28T11:27:42.395Z,18.03
2018-01-28T11:30:08.671Z,15.20
2018-01-28T11:32:35.007Z,16.80
2018-01-28T11:35:01.952Z,17.53
2018-01-28T11:37:28.956Z,14.27
2018-01-28T11:39:55.439Z,19.13
2018-01-28T11:42:22.364Z,18.13
2018-01-28T11:44:48.677Z,24.43
2018-01-28T11:47:15.029Z,23.13
2018-01-28T11:49:41.983Z,21.53
2018-01-28T11:52:08.511Z,16.57
2018-01-28T11:54:34.884Z,14.33
2018-01-28T11:57:01.283Z,20.43
2018-01-28T11:59:28.397Z,16.47
2018-01-28T12:01:55.584Z,16.73
2018-01-28T12:04:22.696Z,18.27
2018-01-28T12:06:49.955Z,20.70
2018-01-28T12:09:16.585Z,28.57
2018-01-28T12:11:42.955Z,20.97
2018-01-28T12:14:09.920Z,18.30
2018-01-28T12:16:36.495Z,18.20
2018-01-28T12:19:02.750Z,20.83
2018-01-28T12:21:29.026Z,23.10
2018-01-28T12:23:55.249Z,20.17
2018-01-28T12:26:21.477Z,18.17
2018-01-28T12:28:47.937Z,20.30
2018-01-28T12:31:14.304Z,21.63
2018-01-28T12:33:41.385Z,17.90
2018-01-28T12:36:07.637Z,17.60
2018-01-28T12:38:33.993Z,26.70
2018-01-28T12:41:01.268Z,19.53
2018-01-28T12:43:27.617Z,30.10
2018-01-28T12:45:54.286Z,18.23
2018-01-28T12:48:20.562Z,11.70
2018-01-28T12:50:47.682Z,24.43
2018-01-28T12:53:14.109Z,28.30
2018-01-28T12:55:40.433Z,17.63
2018-01-28T12:58:06.892Z,13.67
2018-01-28T13:00:33.263Z,14.67
2018-01-28T13:02:59.663Z,15.60
2018-01-28T13:05:26.721Z,16.43
2018-01-28T13:07:53.004Z,11.27
2018-01-28T13:10:19.232Z,15.60
2018-01-28T13:12:45.519Z,12.13
2018-01-28T13:15:11.937Z,15.83
2018-01-28T13:17:38.297Z,8.83
2018-01-28T13:20:04.541Z,20.70
2018-01-28T13:22:30.802Z,18.93
2018-01-28T13:24:57.127Z,17.37
2018-01-28T13:30:58.966Z,19.60
2018-01-28T13:33:25.231Z,15.23
2018-01-28T13:35:51.492Z,20.40
2018-01-28T13:38:18.444Z,29.23
2018-01-28T13:40:45.443Z,18.17
2018-01-28T13:43:11.632Z,14.53
2018-01-28T13:45:37.864Z,18.50
2018-01-28T13:48:04.041Z,17.30
2018-01-28T13:50:31.017Z,16.10
2018-01-28T13:52:57.215Z,20.07
2018-01-28T13:55:23.415Z,18.03
2018-01-28T13:57:49.627Z,23.60
2018-01-28T14:00:15.900Z,28.07
2018-01-28T14:02:42.856Z,20.37
2018-01-28T14:05:09.802Z,16.43
2018-01-28T14:07:36.044Z,13.27
2018-01-28T14:10:03.005Z,22.47
2018-01-28T14:12:29.260Z,28.80
2018-01-28T14:14:55.469Z,17.00
2018-01-28T14:17:21.707Z,15.27
2018-01-28T14:19:47.932Z,21.43
2018-01-28T14:22:14.215Z,23.53
2018-01-28T14:24:41.198Z,28.30
2018-01-28T14:27:07.524Z,39.07
2018-01-28T14:29:33.784Z,18.60
2018-01-28T14:32:00.056Z,18.60
2018-01-28T14:34:26.993Z,24.20
2018-01-28T14:36:53.971Z,16.00
2018-01-28T14:39:20.308Z,21.63
2018-01-28T14:41:46.550Z,18.43
2018-01-28T14:44:12.784Z,20.73
2018-01-28T14:46:38.997Z,16.20
2018-01-28T14:49:05.326Z,18.47
2018-01-28T14:51:31.651Z,21.27
2018-01-28T14:53:57.960Z,25.23
2018-01-28T14:56:24.156Z,28.50
2018-01-28T14:58:51.863Z,18.47
2018-01-28T15:01:18.829Z,22.67
2018-01-28T15:03:45.049Z,23.43
2018-01-28T15:06:11.280Z,25.63
2018-01-28T15:08:37.580Z,16.47
2018-01-28T15:11:03.808Z,19.87
2018-01-28T15:13:30.020Z,39.17
2018-01-28T15:15:56.981Z,17.03
2018-01-28T15:18:23.249Z,20.27
2018-01-28T15:20:49.517Z,20.57
2018-01-28T15:23:16.460Z,20.63
2018-01-28T15:25:43.493Z,17.27
2018-01-28T15:28:09.713Z,11.20
2018-01-28T15:30:35.965Z,18.37
2018-01-28T15:33:03.085Z,30.87
2018-01-28T15:35:29.488Z,26.30
2018-01-28T15:37:55.740Z,21.80
2018-01-28T15:40:21.982Z,27.43
2018-01-28T15:42:49.044Z,21.00
2018-01-28T15:45:16.111Z,17.87
2018-01-28T15:47:42.425Z,25.37
2018-01-28T15:50:09.549Z,24.13
2018-01-28T15:52:35.786Z,19.83
2018-01-28T15:55:03.854Z,30.53
2018-01-28T15:57:30.085Z,23.20
2018-01-28T15:59:56.281Z,21.80
2018-01-28T16:02:22.609Z,29.13
2018-01-28T16:04:48.988Z,20.70
2018-01-28T16:07:15.968Z,18.90
2018-01-28T16:09:42.747Z,30.13
2018-01-28T16:12:09.765Z,20.07
2018-01-28T16:14:35.984Z,29.73
2018-01-28T16:17:02.191Z,23.17
2018-01-28T16:19:28.501Z,23.40
2018-01-28T16:21:55.364Z,25.93
2018-01-28T16:24:21.681Z,29.50
2018-01-28T16:26:50.231Z,39.27
2018-01-28T16:29:17.282Z,28.03
2018-01-28T16:31:43.649Z,26.13
2018-01-28T16:34:09.864Z,32.83
2018-01-28T16:36:36.062Z,30.87
2018-01-28T16:39:02.972Z,31.00
2018-01-28T16:41:29.603Z,21.03
2018-01-28T16:43:55.880Z,17.80
2018-01-28T16:46:22.179Z,37.20
2018-01-28T16:48:48.429Z,29.43
2018-01-28T16:51:15.499Z,29.12
2018-01-28T16:53:41.689Z,31.13
2018-01-28T16:56:07.891Z,32.80
2018-01-28T16:58:34.109Z,28.37
2018-01-28T17:01:00.380Z,20.43
2018-01-28T17:03:26.589Z,26.70
2018-01-28T17:05:52.803Z,24.60
2018-01-28T17:08:19.219Z,22.77
2018-01-28T17:10:45.477Z,26.60
2018-01-28T17:13:11.703Z,24.90
2018-01-28T17:15:37.889Z,29.70
2018-01-28T17:18:04.911Z,21.43
2018-01-28T17:20:31.103Z,24.23
2018-01-28T17:22:57.388Z,23.40
2018-01-28T17:25:23.636Z,27.53
2018-01-28T17:27:50.736Z,25.10
2018-01-28T17:30:17.762Z,23.57
2018-01-28T17:32:44.322Z,21.60
2018-01-28T17:35:16.745Z,26.23
2018-01-28T17:37:44.016Z,27.90
2018-01-28T17:40:10.250Z,24.30
2018-01-28T17:42:36.474Z,34.83
2018-01-28T17:45:02.779Z,28.53
2018-01-28T17:47:29.144Z,24.10
2018-01-28T17:49:55.588Z,31.60
2018-01-28T17:52:22.025Z,29.27
2018-01-28T17:54:48.465Z,27.83
2018-01-28T17:57:15.779Z,31.27
2018-01-28T17:59:42.072Z,26.20
2018-01-28T18:02:08.610Z,32.47
2018-01-28T18:04:35.888Z,19.30
2018-01-28T18:07:02.832Z,34.10
2018-01-28T18:09:29.239Z,28.37
2018-01-28T18:11:56.313Z,28.13
2018-01-28T18:14:22.641Z,31.30
2018-01-28T18:16:48.852Z,28.87
2018-01-28T18:19:15.264Z,36.23
2018-01-28T18:21:42.312Z,30.00
2018-01-28T18:24:08.711Z,26.97
2018-01-28T18:26:35.138Z,30.77
2018-01-28T18:29:01.628Z,31.93
2018-01-28T18:31:28.605Z,28.93
2018-01-28T18:33:54.926Z,26.00
2018-01-28T18:36:21.194Z,32.00
2018-01-28T18:38:47.564Z,31.67
2018-01-28T18:41:15.486Z,35.30
2018-01-28T18:43:42.002Z,37.13
2018-01-28T18:46:08.339Z,31.30
2018-01-28T18:48:35.700Z,29.87
2018-01-28T18:51:02.189Z,30.60
2018-01-28T18:53:29.507Z,27.07
2018-01-28T18:55:56.058Z,26.00
2018-01-28T18:58:24.620Z,26.73
2018-01-28T19:00:51.596Z,35.67
2018-01-28T19:03:18.638Z,34.83
2018-01-28T19:05:44.909Z,42.90
2018-01-28T19:08:12.260Z,45.67
2018-01-28T19:10:40.250Z,40.03
2018-01-28T19:13:07.252Z,58.93
2018-01-28T19:15:34.270Z,34.63
2018-01-28T19:18:00.515Z,54.90
2018-01-28T19:20:27.173Z,60.33
2018-01-28T19:22:53.552Z,51.60
2018-01-28T19:25:19.926Z,43.77
2018-01-28T19:27:48.527Z,61.97
2018-01-28T19:30:14.825Z,59.73
2018-01-28T19:32:41.129Z,51.90
2018-01-28T19:35:08.167Z,56.20
2018-01-28T19:37:34.444Z,50.20
2018-01-28T19:40:00.672Z,60.63
2018-01-28T19:42:28.695Z,61.53
2018-01-28T19:44:55.985Z,53.60
2018-01-28T19:47:23.312Z,71.23
2018-01-28T19:49:50.343Z,64.60
2018-01-28T19:52:16.650Z,74.20
2018-01-28T19:54:42.947Z,72.07
2018-01-28T19:57:09.313Z,65.70
2018-01-28T19:59:35.742Z,66.17
2018-01-28T20:02:02.824Z,56.27
2018-01-28T20:04:29.089Z,56.40
2018-01-28T20:06:55.422Z,63.13
2018-01-28T20:09:21.688Z,65.10
2018-01-28T20:11:49.401Z,59.37
2018-01-28T20:14:15.651Z,57.73
2018-01-28T20:16:42.031Z,64.90
2018-01-28T20:19:08.705Z,73.07
2018-01-28T20:21:35.098Z,59.10
2018-01-28T20:24:01.362Z,66.90
2018-01-28T20:26:27.741Z,68.20
2018-01-28T20:28:54.021Z,52.17
2018-01-28T20:31:20.406Z,60.50
2018-01-28T20:33:46.730Z,51.70
2018-01-28T20:36:13.151Z,59.10
2018-01-28T20:38:39.466Z,54.37
2018-01-28T20:41:05.838Z,51.00
2018-01-28T20:43:33.090Z,52.30
2018-01-28T20:45:59.436Z,69.80
2018-01-28T20:48:25.791Z,49.03
2018-01-28T20:50:52.030Z,56.13
2018-01-28T20:53:18.311Z,53.23
2018-01-28T20:58:16.804Z,56.63
2018-01-28T21:00:43.094Z,43.07
2018-01-28T21:03:09.413Z,39.13
2018-01-28T21:05:37.893Z,55.90
2018-01-28T21:08:04.107Z,38.43
2018-01-28T21:10:31.109Z,47.03
2018-01-28T21:12:58.090Z,50.33
2018-01-28T21:15:25.059Z,44.97
2018-01-28T21:17:51.425Z,38.03
2018-01-28T21:20:17.779Z,42.60
2018-01-28T21:22:44.805Z,45.13
2018-01-28T21:25:12.204Z,45.00
2018-01-28T21:27:38.477Z,42.20
2018-01-28T21:30:04.763Z,47.50
2018-01-28T21:32:31.049Z,40.27
2018-01-28T21:34:57.292Z,48.40
2018-01-28T21:37:24.373Z,40.53
2018-01-28T21:39:51.685Z,41.03
2018-01-28T21:42:17.911Z,33.13
2018-01-28T21:44:44.109Z,39.20
2018-01-28T21:47:10.369Z,39.53
2018-01-28T21:49:36.585Z,31.37
2018-01-28T21:52:02.840Z,30.70
2018-01-28T21:54:29.407Z,41.23
2018-01-28T21:56:56.350Z,23.77
2018-01-28T21:59:23.296Z,27.90
2018-01-28T22:01:49.675Z,25.33
2018-01-28T22:04:16.816Z,25.33
2018-01-28T22:06:43.160Z,26.63
2018-01-28T22:09:19.344Z,24.17
2018-01-28T22:11:46.418Z,22.57
2018-01-28T22:14:12.678Z,25.93
2018-01-28T22:16:39.070Z,28.37
2018-01-28T22:19:06.288Z,26.23
2018-01-28T22:21:32.480Z,29.37
2018-01-28T22:23:58.726Z,29.80
2018-01-28T22:26:24.956Z,23.53
2018-01-28T22:28:51.165Z,28.70
2018-01-28T22:31:17.802Z,23.20
2018-01-28T22:33:44.839Z,17.20
2018-01-28T22:36:11.231Z,20.30
2018-01-28T22:38:37.516Z,19.03
2018-01-28T22:41:03.846Z,18.87
2018-01-28T22:43:30.160Z,16.97
2018-01-28T22:45:56.399Z,16.70
2018-01-28T22:48:22.652Z,19.60
2018-01-28T22:50:48.952Z,13.73
2018-01-28T22:53:15.268Z,20.17
2018-01-28T22:55:42.650Z,18.93
2018-01-28T22:58:08.935Z,18.37
2018-01-28T23:00:35.297Z,15.37
2018-01-28T23:03:01.703Z,19.10
2018-01-28T23:05:27.936Z,13.60
2018-01-28T23:07:54.136Z,19.83
2018-01-28T23:10:21.150Z,17.50
2018-01-28T23:12:47.365Z,14.90
2018-01-28T23:15:14.225Z,14.50
2018-01-28T23:17:40.467Z,13.50
2018-01-28T23:20:06.912Z,17.93
2018-01-28T23:22:35.054Z,19.77
2018-01-28T23:25:01.306Z,18.63
2018-01-28T23:27:29.126Z,18.90
2018-01-28T23:29:55.347Z,14.90
2018-01-28T23:32:21.566Z,19.43
2018-01-28T23:34:47.821Z,16.47
2018-01-28T23:37:14.063Z,14.27
2018-01-28T23:39:40.310Z,15.33
2018-01-28T23:42:06.505Z,16.53
2018-01-28T23:44:32.719Z,11.83
2018-01-28T23:47:05.951Z,10.60
2018-01-28T23:49:32.932Z,11.83
2018-01-28T23:51:59.171Z,9.20
2018-01-28T23:54:25.416Z,15.47
2018-01-28T23:56:51.656Z,9.50
2018-01-28T23:59:18.624Z,11.83
